Main page
METAR-TAF:

METAR-TAF

Airports :

Beslan Airport

Vladikavkaz, Russia

latitude: 43-12-18N, longitude: 044-36-24E, elevation: 510 m

Current weather observation

The report was made 47 minutes ago, at 20:30 UTC
Wind 4 kt from the East/Northeast
Temperature 10°C
Humidity 87%
Pressure 1017 hPa
Visibility 10 km or more
Scattered clouds at a height of 9200 ft

METAR: URMO 192030Z 06002MPS 9999 SCT092 10/08 Q1017 R09/010070 NOSIG RMK QFE719/0959

Time: 00:17 (21:17 UTC)

Forecast

The report was made 1 hour and 17 minutes ago, at 20:00 UTC
Forecast valid from 19 at 21 UTC to 20 at 06 UTC
Wind 2 kt from variable directions
Visibility: 6000 m
Broken clouds at a height of 1600 ft

TAF: URMO 192000Z 1921/2006 VRB01MPS 6000 BKN016

Weather observations and forecasts of more than 4000 airports (METAR and TAF reports).

The available stations are represented by yellow and red dots on the map.

Hover mouse over dot to see the name of the station.

Then click to see weather observations and forecasts.

To change the map : click on the green buttons with a black cross to zoom in, on the green button with a dash to zoom out, or on the green arrows for adjacent maps.


METAR-TAF: